sensor_id;sensor_type;location;lat;lon;timestamp;P1;durP1;ratioP1;P2;durP2;ratioP2
79365;SDS011;68833;53.160;17.920;2023-12-29T11:06:28;4.20;;;1.90;;
79365;SDS011;68833;53.160;17.920;2023-12-29T11:08:56;2.90;;;1.40;;
79365;SDS011;68833;53.160;17.920;2023-12-29T11:11:23;1.90;;;1.30;;
79365;SDS011;68833;53.160;17.920;2023-12-29T11:13:49;2.50;;;1.60;;
79365;SDS011;68833;53.160;17.920;2023-12-29T11:16:16;2.60;;;1.60;;
79365;SDS011;68833;53.160;17.920;2023-12-29T11:18:47;3.40;;;1.60;;
79365;SDS011;68833;53.160;17.920;2023-12-29T11:21:15;2.70;;;1.80;;
79365;SDS011;68833;53.160;17.920;2023-12-29T11:23:43;2.70;;;1.40;;
79365;SDS011;68833;53.160;17.920;2023-12-29T11:26:09;2.60;;;1.50;;
79365;SDS011;68833;53.160;17.920;2023-12-29T11:28:36;2.70;;;1.40;;
79365;SDS011;68833;53.160;17.920;2023-12-29T11:31:03;4.10;;;1.30;;
79365;SDS011;68833;53.160;17.920;2023-12-29T11:33:34;2.50;;;1.40;;
79365;SDS011;68833;53.160;17.920;2023-12-29T11:36:14;2.90;;;1.40;;
79365;SDS011;68833;53.160;17.920;2023-12-29T11:41:40;8.20;;;1.80;;
79365;SDS011;68833;53.160;17.920;2023-12-29T11:44:28;2.40;;;1.10;;
79365;SDS011;68833;53.160;17.920;2023-12-29T11:46:55;2.60;;;1.20;;
79365;SDS011;68833;53.160;17.920;2023-12-29T11:49:26;1.80;;;1.20;;
79365;SDS011;68833;53.160;17.920;2023-12-29T11:51:52;2.00;;;1.30;;
79365;SDS011;68833;53.160;17.920;2023-12-29T11:54:22;1.80;;;1.30;;
79365;SDS011;68833;53.160;17.920;2023-12-29T11:56:49;5.40;;;1.70;;
79365;SDS011;68833;53.160;17.920;2023-12-29T11:59:17;3.10;;;1.60;;
79365;SDS011;68833;53.160;17.920;2023-12-29T12:01:48;1.80;;;1.30;;
79365;SDS011;68833;53.160;17.920;2023-12-29T12:04:35;1.80;;;1.10;;
79365;SDS011;68833;53.160;17.920;2023-12-29T12:12:48;2.20;;;1.40;;
79365;SDS011;68833;53.160;17.920;2023-12-29T12:17:52;1.40;;;1.00;;
79365;SDS011;68833;53.160;17.920;2023-12-29T12:20:19;3.30;;;1.60;;
79365;SDS011;68833;53.160;17.920;2023-12-29T12:22:48;2.60;;;1.50;;
79365;SDS011;68833;53.160;17.920;2023-12-29T12:25:22;2.00;;;1.50;;
79365;SDS011;68833;53.160;17.920;2023-12-29T12:27:57;2.50;;;1.60;;
79365;SDS011;68833;53.160;17.920;2023-12-29T12:30:23;3.70;;;1.40;;
79365;SDS011;68833;53.160;17.920;2023-12-29T12:32:57;3.10;;;2.20;;
79365;SDS011;68833;53.160;17.920;2023-12-29T12:35:24;5.10;;;2.50;;
79365;SDS011;68833;53.160;17.920;2023-12-29T12:40:50;1.90;;;1.30;;
79365;SDS011;68833;53.160;17.920;2023-12-29T12:43:17;2.60;;;1.60;;
79365;SDS011;68833;53.160;17.920;2023-12-29T12:45:47;3.50;;;1.70;;
79365;SDS011;68833;53.160;17.920;2023-12-29T12:48:23;2.10;;;1.50;;
79365;SDS011;68833;53.160;17.920;2023-12-29T12:51:00;3.00;;;1.60;;
79365;SDS011;68833;53.160;17.920;2023-12-29T12:53:31;4.30;;;2.30;;
79365;SDS011;68833;53.160;17.920;2023-12-29T12:55:59;3.30;;;1.30;;
79365;SDS011;68833;53.160;17.920;2023-12-29T12:58:26;2.60;;;1.20;;
79365;SDS011;68833;53.160;17.920;2023-12-29T13:00:56;4.40;;;1.50;;
79365;SDS011;68833;53.160;17.920;2023-12-29T13:03:24;3.60;;;1.70;;
79365;SDS011;68833;53.160;17.920;2023-12-29T13:05:51;3.50;;;1.70;;
79365;SDS011;68833;53.160;17.920;2023-12-29T13:08:18;2.70;;;1.70;;
79365;SDS011;68833;53.160;17.920;2023-12-29T13:10:45;4.30;;;2.50;;
79365;SDS011;68833;53.160;17.920;2023-12-29T13:13:12;5.10;;;1.90;;
79365;SDS011;68833;53.160;17.920;2023-12-29T13:15:47;5.30;;;2.00;;
79365;SDS011;68833;53.160;17.920;2023-12-29T13:18:14;3.70;;;1.80;;
79365;SDS011;68833;53.160;17.920;2023-12-29T13:20:48;4.40;;;2.10;;
79365;SDS011;68833;53.160;17.920;2023-12-29T13:23:16;5.20;;;1.90;;
79365;SDS011;68833;53.160;17.920;2023-12-29T13:25:43;4.20;;;1.60;;
79365;SDS011;68833;53.160;17.920;2023-12-29T13:28:11;3.60;;;1.60;;
79365;SDS011;68833;53.160;17.920;2023-12-29T13:30:37;2.80;;;1.80;;
79365;SDS011;68833;53.160;17.920;2023-12-29T13:33:07;3.70;;;1.80;;
79365;SDS011;68833;53.160;17.920;2023-12-29T13:35:40;5.60;;;1.70;;
79365;SDS011;68833;53.160;17.920;2023-12-29T13:38:19;7.00;;;2.10;;
79365;SDS011;68833;53.160;17.920;2023-12-29T13:41:00;4.80;;;1.90;;
79365;SDS011;68833;53.160;17.920;2023-12-29T13:43:31;2.70;;;1.60;;
79365;SDS011;68833;53.160;17.920;2023-12-29T13:46:00;5.60;;;2.40;;
79365;SDS011;68833;53.160;17.920;2023-12-29T13:48:27;3.80;;;2.00;;
79365;SDS011;68833;53.160;17.920;2023-12-29T13:50:55;3.50;;;1.80;;
79365;SDS011;68833;53.160;17.920;2023-12-29T13:53:24;5.60;;;2.60;;
79365;SDS011;68833;53.160;17.920;2023-12-29T13:55:50;4.20;;;2.00;;
79365;SDS011;68833;53.160;17.920;2023-12-29T13:58:17;3.00;;;2.20;;
79365;SDS011;68833;53.160;17.920;2023-12-29T14:00:45;5.90;;;3.20;;
79365;SDS011;68833;53.160;17.920;2023-12-29T14:03:27;3.30;;;2.00;;
79365;SDS011;68833;53.160;17.920;2023-12-29T14:06:00;3.50;;;1.90;;
79365;SDS011;68833;53.160;17.920;2023-12-29T14:08:41;5.60;;;3.10;;
79365;SDS011;68833;53.160;17.920;2023-12-29T14:11:13;6.10;;;2.30;;
79365;SDS011;68833;53.160;17.920;2023-12-29T14:13:43;3.70;;;1.70;;
79365;SDS011;68833;53.160;17.920;2023-12-29T14:16:11;2.70;;;1.50;;
79365;SDS011;68833;53.160;17.920;2023-12-29T14:21:23;2.70;;;1.90;;
79365;SDS011;68833;53.160;17.920;2023-12-29T14:23:59;2.30;;;1.50;;
79365;SDS011;68833;53.160;17.920;2023-12-29T14:26:37;4.20;;;1.80;;
79365;SDS011;68833;53.160;17.920;2023-12-29T14:29:08;4.40;;;2.10;;
79365;SDS011;68833;53.160;17.920;2023-12-29T14:31:36;6.40;;;2.90;;
79365;SDS011;68833;53.160;17.920;2023-12-29T14:34:10;5.00;;;2.60;;
79365;SDS011;68833;53.160;17.920;2023-12-29T14:36:38;5.80;;;2.80;;
79365;SDS011;68833;53.160;17.920;2023-12-29T14:39:06;8.60;;;3.60;;
79365;SDS011;68833;53.160;17.920;2023-12-29T14:41:34;6.80;;;2.80;;
79365;SDS011;68833;53.160;17.920;2023-12-29T14:44:00;4.50;;;2.40;;
79365;SDS011;68833;53.160;17.920;2023-12-29T14:46:29;6.80;;;3.20;;
79365;SDS011;68833;53.160;17.920;2023-12-29T14:48:56;6.30;;;3.80;;
79365;SDS011;68833;53.160;17.920;2023-12-29T14:51:35;7.70;;;3.90;;
79365;SDS011;68833;53.160;17.920;2023-12-29T14:54:02;8.60;;;4.00;;
79365;SDS011;68833;53.160;17.920;2023-12-29T14:56:39;5.80;;;3.40;;
79365;SDS011;68833;53.160;17.920;2023-12-29T14:59:06;7.10;;;4.20;;
79365;SDS011;68833;53.160;17.920;2023-12-29T15:01:32;5.90;;;2.80;;
79365;SDS011;68833;53.160;17.920;2023-12-29T15:03:59;8.90;;;4.30;;
79365;SDS011;68833;53.160;17.920;2023-12-29T15:06:27;15.00;;;7.00;;
79365;SDS011;68833;53.160;17.920;2023-12-29T15:08:54;14.90;;;7.60;;
79365;SDS011;68833;53.160;17.920;2023-12-29T15:11:21;12.70;;;6.00;;
79365;SDS011;68833;53.160;17.920;2023-12-29T15:13:48;9.80;;;5.60;;
79365;SDS011;68833;53.160;17.920;2023-12-29T15:16:15;12.40;;;6.20;;
79365;SDS011;68833;53.160;17.920;2023-12-29T15:18:42;7.70;;;3.90;;
79365;SDS011;68833;53.160;17.920;2023-12-29T15:21:08;7.60;;;4.30;;
79365;SDS011;68833;53.160;17.920;2023-12-29T15:23:35;7.90;;;5.30;;
79365;SDS011;68833;53.160;17.920;2023-12-29T15:26:03;9.80;;;4.90;;
79365;SDS011;68833;53.160;17.920;2023-12-29T15:28:29;8.20;;;5.00;;
79365;SDS011;68833;53.160;17.920;2023-12-29T15:30:56;13.60;;;6.30;;
79365;SDS011;68833;53.160;17.920;2023-12-29T15:33:23;15.30;;;7.70;;
79365;SDS011;68833;53.160;17.920;2023-12-29T15:35:51;9.70;;;5.00;;
79365;SDS011;68833;53.160;17.920;2023-12-29T15:38:26;7.70;;;4.10;;
79365;SDS011;68833;53.160;17.920;2023-12-29T15:40:53;8.50;;;4.10;;
79365;SDS011;68833;53.160;17.920;2023-12-29T15:43:19;8.20;;;3.80;;
79365;SDS011;68833;53.160;17.920;2023-12-29T15:45:46;11.90;;;4.30;;
79365;SDS011;68833;53.160;17.920;2023-12-29T15:48:12;5.80;;;2.30;;
79365;SDS011;68833;53.160;17.920;2023-12-29T15:50:39;5.80;;;2.70;;
79365;SDS011;68833;53.160;17.920;2023-12-29T15:53:05;7.40;;;3.50;;
79365;SDS011;68833;53.160;17.920;2023-12-29T15:55:33;5.60;;;2.10;;
79365;SDS011;68833;53.160;17.920;2023-12-29T15:58:00;9.40;;;3.00;;
79365;SDS011;68833;53.160;17.920;2023-12-29T16:00:26;5.20;;;3.10;;
79365;SDS011;68833;53.160;17.920;2023-12-29T16:02:53;12.00;;;4.30;;
79365;SDS011;68833;53.160;17.920;2023-12-29T16:05:19;5.50;;;2.00;;
79365;SDS011;68833;53.160;17.920;2023-12-29T16:07:46;4.80;;;2.10;;
79365;SDS011;68833;53.160;17.920;2023-12-29T16:10:12;5.60;;;2.10;;
79365;SDS011;68833;53.160;17.920;2023-12-29T16:12:40;4.60;;;2.20;;
79365;SDS011;68833;53.160;17.920;2023-12-29T16:15:06;4.60;;;2.60;;
79365;SDS011;68833;53.160;17.920;2023-12-29T16:17:35;5.70;;;2.40;;
79365;SDS011;68833;53.160;17.920;2023-12-29T16:20:04;3.50;;;2.00;;
79365;SDS011;68833;53.160;17.920;2023-12-29T16:22:31;3.40;;;1.90;;
79365;SDS011;68833;53.160;17.920;2023-12-29T16:24:59;4.70;;;2.10;;
79365;SDS011;68833;53.160;17.920;2023-12-29T16:27:26;3.60;;;1.90;;
79365;SDS011;68833;53.160;17.920;2023-12-29T16:29:53;5.60;;;2.80;;
79365;SDS011;68833;53.160;17.920;2023-12-29T16:32:21;8.20;;;4.70;;
79365;SDS011;68833;53.160;17.920;2023-12-29T16:34:49;6.90;;;3.10;;
79365;SDS011;68833;53.160;17.920;2023-12-29T16:37:15;9.00;;;3.60;;
79365;SDS011;68833;53.160;17.920;2023-12-29T16:39:43;6.10;;;2.60;;
79365;SDS011;68833;53.160;17.920;2023-12-29T16:42:10;3.10;;;1.40;;
79365;SDS011;68833;53.160;17.920;2023-12-29T16:44:36;5.50;;;2.20;;
79365;SDS011;68833;53.160;17.920;2023-12-29T16:47:03;4.80;;;2.40;;
79365;SDS011;68833;53.160;17.920;2023-12-29T16:49:32;5.00;;;1.70;;
79365;SDS011;68833;53.160;17.920;2023-12-29T16:51:59;11.20;;;4.60;;
79365;SDS011;68833;53.160;17.920;2023-12-29T16:54:26;20.30;;;9.60;;
79365;SDS011;68833;53.160;17.920;2023-12-29T16:56:54;10.60;;;5.50;;
79365;SDS011;68833;53.160;17.920;2023-12-29T16:59:21;9.30;;;4.40;;
79365;SDS011;68833;53.160;17.920;2023-12-29T17:03:58;11.80;;;7.70;;
79365;SDS011;68833;53.160;17.920;2023-12-29T17:06:25;12.50;;;6.60;;
79365;SDS011;68833;53.160;17.920;2023-12-29T17:08:52;9.10;;;5.30;;
79365;SDS011;68833;53.160;17.920;2023-12-29T17:11:18;8.10;;;5.30;;
79365;SDS011;68833;53.160;17.920;2023-12-29T17:13:45;11.40;;;7.80;;
79365;SDS011;68833;53.160;17.920;2023-12-29T17:16:11;12.60;;;8.20;;
79365;SDS011;68833;53.160;17.920;2023-12-29T17:18:38;15.00;;;8.50;;
79365;SDS011;68833;53.160;17.920;2023-12-29T17:21:06;25.10;;;12.30;;
79365;SDS011;68833;53.160;17.920;2023-12-29T17:23:32;24.10;;;13.00;;
79365;SDS011;68833;53.160;17.920;2023-12-29T17:25:59;20.60;;;11.20;;
79365;SDS011;68833;53.160;17.920;2023-12-29T17:28:26;23.70;;;11.00;;
79365;SDS011;68833;53.160;17.920;2023-12-29T17:30:55;21.30;;;10.20;;
79365;SDS011;68833;53.160;17.920;2023-12-29T17:33:23;9.40;;;5.00;;
79365;SDS011;68833;53.160;17.920;2023-12-29T17:35:50;21.10;;;7.00;;
79365;SDS011;68833;53.160;17.920;2023-12-29T17:38:19;18.30;;;6.90;;
79365;SDS011;68833;53.160;17.920;2023-12-29T17:40:46;18.40;;;6.80;;
79365;SDS011;68833;53.160;17.920;2023-12-29T17:43:14;42.80;;;23.80;;
79365;SDS011;68833;53.160;17.920;2023-12-29T17:45:44;33.20;;;22.40;;
79365;SDS011;68833;53.160;17.920;2023-12-29T17:48:17;26.50;;;13.10;;
79365;SDS011;68833;53.160;17.920;2023-12-29T17:50:54;16.80;;;8.40;;
79365;SDS011;68833;53.160;17.920;2023-12-29T17:53:22;27.70;;;15.40;;
79365;SDS011;68833;53.160;17.920;2023-12-29T17:55:52;10.00;;;5.00;;
79365;SDS011;68833;53.160;17.920;2023-12-29T17:58:19;6.80;;;5.80;;
79365;SDS011;68833;53.160;17.920;2023-12-29T18:00:46;7.10;;;3.80;;
79365;SDS011;68833;53.160;17.920;2023-12-29T18:03:13;10.40;;;5.60;;
79365;SDS011;68833;53.160;17.920;2023-12-29T18:05:42;15.00;;;7.20;;
79365;SDS011;68833;53.160;17.920;2023-12-29T18:08:10;15.50;;;9.00;;
79365;SDS011;68833;53.160;17.920;2023-12-29T18:14:24;13.00;;;7.50;;
79365;SDS011;68833;53.160;17.920;2023-12-29T18:16:54;12.90;;;6.80;;
79365;SDS011;68833;53.160;17.920;2023-12-29T18:20:06;12.80;;;6.10;;
79365;SDS011;68833;53.160;17.920;2023-12-29T18:22:42;10.80;;;7.00;;
79365;SDS011;68833;53.160;17.920;2023-12-29T18:25:09;11.60;;;6.60;;
79365;SDS011;68833;53.160;17.920;2023-12-29T18:27:36;13.10;;;7.50;;
79365;SDS011;68833;53.160;17.920;2023-12-29T18:30:06;14.30;;;8.10;;
79365;SDS011;68833;53.160;17.920;2023-12-29T18:32:40;15.00;;;7.70;;
79365;SDS011;68833;53.160;17.920;2023-12-29T18:35:07;16.80;;;8.20;;
79365;SDS011;68833;53.160;17.920;2023-12-29T19:22:13;27.50;;;17.50;;
79365;SDS011;68833;53.160;17.920;2023-12-29T19:24:42;27.50;;;17.40;;
79365;SDS011;68833;53.160;17.920;2023-12-29T19:27:16;29.30;;;17.60;;
79365;SDS011;68833;53.160;17.920;2023-12-29T19:29:46;28.50;;;17.30;;
79365;SDS011;68833;53.160;17.920;2023-12-29T19:32:14;28.00;;;18.20;;
79365;SDS011;68833;53.160;17.920;2023-12-29T19:34:42;29.60;;;18.40;;
79365;SDS011;68833;53.160;17.920;2023-12-29T19:37:10;31.00;;;18.80;;
79365;SDS011;68833;53.160;17.920;2023-12-29T19:39:39;32.90;;;20.00;;
79365;SDS011;68833;53.160;17.920;2023-12-29T19:42:08;29.60;;;18.90;;
79365;SDS011;68833;53.160;17.920;2023-12-29T19:44:36;32.60;;;19.60;;
79365;SDS011;68833;53.160;17.920;2023-12-29T19:47:08;32.90;;;19.80;;
79365;SDS011;68833;53.160;17.920;2023-12-29T19:49:39;32.90;;;20.60;;
79365;SDS011;68833;53.160;17.920;2023-12-29T19:52:12;36.70;;;22.50;;
79365;SDS011;68833;53.160;17.920;2023-12-29T19:54:40;47.70;;;26.80;;
79365;SDS011;68833;53.160;17.920;2023-12-29T19:57:07;33.70;;;20.90;;
79365;SDS011;68833;53.160;17.920;2023-12-29T19:59:35;33.00;;;20.40;;
79365;SDS011;68833;53.160;17.920;2023-12-29T20:02:02;29.00;;;18.50;;
79365;SDS011;68833;53.160;17.920;2023-12-29T20:04:30;24.20;;;15.40;;
79365;SDS011;68833;53.160;17.920;2023-12-29T20:06:57;24.80;;;16.50;;
79365;SDS011;68833;53.160;17.920;2023-12-29T20:09:25;26.50;;;16.50;;
79365;SDS011;68833;53.160;17.920;2023-12-29T20:11:59;24.30;;;14.80;;
79365;SDS011;68833;53.160;17.920;2023-12-29T20:14:27;20.70;;;13.70;;
79365;SDS011;68833;53.160;17.920;2023-12-29T20:16:54;18.50;;;12.00;;
79365;SDS011;68833;53.160;17.920;2023-12-29T20:19:23;19.10;;;12.70;;
79365;SDS011;68833;53.160;17.920;2023-12-29T20:21:53;19.20;;;13.60;;
79365;SDS011;68833;53.160;17.920;2023-12-29T20:24:20;24.40;;;15.30;;
79365;SDS011;68833;53.160;17.920;2023-12-29T20:26:48;18.70;;;12.20;;
79365;SDS011;68833;53.160;17.920;2023-12-29T20:29:15;19.70;;;14.90;;
79365;SDS011;68833;53.160;17.920;2023-12-29T20:31:47;22.50;;;14.60;;
79365;SDS011;68833;53.160;17.920;2023-12-29T20:34:18;21.90;;;13.70;;
79365;SDS011;68833;53.160;17.920;2023-12-29T20:36:46;23.70;;;13.20;;
79365;SDS011;68833;53.160;17.920;2023-12-29T20:39:16;25.50;;;13.60;;
79365;SDS011;68833;53.160;17.920;2023-12-29T20:41:46;22.90;;;13.50;;
79365;SDS011;68833;53.160;17.920;2023-12-29T20:44:14;28.60;;;14.40;;
79365;SDS011;68833;53.160;17.920;2023-12-29T20:46:42;25.40;;;16.40;;
79365;SDS011;68833;53.160;17.920;2023-12-29T20:49:11;28.60;;;15.90;;
79365;SDS011;68833;53.160;17.920;2023-12-29T20:51:38;20.50;;;11.10;;
79365;SDS011;68833;53.160;17.920;2023-12-29T20:54:05;13.70;;;9.30;;
79365;SDS011;68833;53.160;17.920;2023-12-29T20:56:33;7.90;;;5.50;;
79365;SDS011;68833;53.160;17.920;2023-12-29T20:59:01;11.00;;;6.20;;
79365;SDS011;68833;53.160;17.920;2023-12-29T21:01:28;12.70;;;4.70;;
79365;SDS011;68833;53.160;17.920;2023-12-29T21:03:56;6.50;;;4.80;;
79365;SDS011;68833;53.160;17.920;2023-12-29T21:07:06;7.60;;;5.00;;
79365;SDS011;68833;53.160;17.920;2023-12-29T21:12:54;7.40;;;4.80;;
79365;SDS011;68833;53.160;17.920;2023-12-29T21:15:26;11.90;;;6.00;;
79365;SDS011;68833;53.160;17.920;2023-12-29T21:17:53;14.50;;;6.70;;
79365;SDS011;68833;53.160;17.920;2023-12-29T21:20:22;10.00;;;6.20;;
79365;SDS011;68833;53.160;17.920;2023-12-29T21:22:59;10.50;;;5.60;;
79365;SDS011;68833;53.160;17.920;2023-12-29T21:25:27;7.70;;;4.70;;
79365;SDS011;68833;53.160;17.920;2023-12-29T21:27:58;10.20;;;4.80;;
79365;SDS011;68833;53.160;17.920;2023-12-29T21:30:30;8.00;;;3.80;;
79365;SDS011;68833;53.160;17.920;2023-12-29T21:33:00;5.30;;;3.00;;
79365;SDS011;68833;53.160;17.920;2023-12-29T21:35:28;5.80;;;3.70;;
79365;SDS011;68833;53.160;17.920;2023-12-29T21:38:09;6.60;;;3.10;;
79365;SDS011;68833;53.160;17.920;2023-12-29T21:40:36;4.70;;;2.90;;
79365;SDS011;68833;53.160;17.920;2023-12-29T21:43:08;8.60;;;4.50;;
79365;SDS011;68833;53.160;17.920;2023-12-29T21:45:37;7.60;;;4.20;;
79365;SDS011;68833;53.160;17.920;2023-12-29T21:48:09;10.20;;;5.20;;
79365;SDS011;68833;53.160;17.920;2023-12-29T21:50:36;11.30;;;5.50;;
79365;SDS011;68833;53.160;17.920;2023-12-29T21:53:05;7.70;;;4.50;;
79365;SDS011;68833;53.160;17.920;2023-12-29T21:55:34;6.80;;;4.50;;
79365;SDS011;68833;53.160;17.920;2023-12-29T21:58:08;6.80;;;3.50;;
79365;SDS011;68833;53.160;17.920;2023-12-29T22:00:56;6.70;;;3.80;;
79365;SDS011;68833;53.160;17.920;2023-12-29T22:03:44;5.30;;;3.10;;
79365;SDS011;68833;53.160;17.920;2023-12-29T22:06:11;5.40;;;2.60;;
79365;SDS011;68833;53.160;17.920;2023-12-29T22:08:39;4.00;;;2.20;;
79365;SDS011;68833;53.160;17.920;2023-12-29T22:11:08;4.70;;;2.60;;
79365;SDS011;68833;53.160;17.920;2023-12-29T22:13:35;4.70;;;2.40;;
79365;SDS011;68833;53.160;17.920;2023-12-29T22:16:07;4.60;;;2.30;;
79365;SDS011;68833;53.160;17.920;2023-12-29T22:18:34;6.90;;;2.30;;
79365;SDS011;68833;53.160;17.920;2023-12-29T22:21:02;4.20;;;3.00;;
79365;SDS011;68833;53.160;17.920;2023-12-29T22:23:32;4.40;;;3.10;;
79365;SDS011;68833;53.160;17.920;2023-12-29T22:26:00;4.70;;;2.40;;
79365;SDS011;68833;53.160;17.920;2023-12-29T22:28:31;5.50;;;3.10;;
79365;SDS011;68833;53.160;17.920;2023-12-29T22:30:58;3.40;;;2.10;;
79365;SDS011;68833;53.160;17.920;2023-12-29T22:33:27;2.80;;;2.00;;
79365;SDS011;68833;53.160;17.920;2023-12-29T22:35:55;6.90;;;2.30;;
79365;SDS011;68833;53.160;17.920;2023-12-29T22:38:23;3.80;;;2.40;;
79365;SDS011;68833;53.160;17.920;2023-12-29T22:40:50;5.90;;;2.60;;
79365;SDS011;68833;53.160;17.920;2023-12-29T22:43:18;3.90;;;2.20;;
79365;SDS011;68833;53.160;17.920;2023-12-29T22:45:47;4.50;;;2.10;;
79365;SDS011;68833;53.160;17.920;2023-12-29T22:48:15;4.00;;;2.20;;
79365;SDS011;68833;53.160;17.920;2023-12-29T22:50:43;4.20;;;1.70;;
79365;SDS011;68833;53.160;17.920;2023-12-29T22:53:10;3.50;;;1.90;;
79365;SDS011;68833;53.160;17.920;2023-12-29T22:55:41;2.50;;;1.80;;
79365;SDS011;68833;53.160;17.920;2023-12-29T22:58:08;3.30;;;1.90;;
79365;SDS011;68833;53.160;17.920;2023-12-29T23:00:35;2.10;;;1.40;;
79365;SDS011;68833;53.160;17.920;2023-12-29T23:03:04;2.10;;;1.40;;
79365;SDS011;68833;53.160;17.920;2023-12-29T23:08:36;2.80;;;1.60;;
79365;SDS011;68833;53.160;17.920;2023-12-29T23:11:03;2.50;;;1.50;;
79365;SDS011;68833;53.160;17.920;2023-12-29T23:13:31;3.50;;;1.40;;
79365;SDS011;68833;53.160;17.920;2023-12-29T23:16:01;4.30;;;1.80;;
79365;SDS011;68833;53.160;17.920;2023-12-29T23:18:29;4.50;;;1.20;;
79365;SDS011;68833;53.160;17.920;2023-12-29T23:21:00;3.20;;;1.70;;
79365;SDS011;68833;53.160;17.920;2023-12-29T23:23:28;7.60;;;1.60;;
79365;SDS011;68833;53.160;17.920;2023-12-29T23:25:55;2.40;;;1.20;;
79365;SDS011;68833;53.160;17.920;2023-12-29T23:28:27;2.50;;;1.60;;
79365;SDS011;68833;53.160;17.920;2023-12-29T23:31:00;2.10;;;1.20;;
79365;SDS011;68833;53.160;17.920;2023-12-29T23:33:29;3.20;;;1.40;;
79365;SDS011;68833;53.160;17.920;2023-12-29T23:35:56;2.80;;;1.50;;
79365;SDS011;68833;53.160;17.920;2023-12-29T23:38:24;3.20;;;1.50;;
79365;SDS011;68833;53.160;17.920;2023-12-29T23:40:51;4.00;;;1.60;;
79365;SDS011;68833;53.160;17.920;2023-12-29T23:43:19;2.50;;;1.30;;
79365;SDS011;68833;53.160;17.920;2023-12-29T23:45:46;4.60;;;1.70;;
79365;SDS011;68833;53.160;17.920;2023-12-29T23:48:16;3.40;;;1.40;;
79365;SDS011;68833;53.160;17.920;2023-12-29T23:50:48;2.10;;;1.40;;
79365;SDS011;68833;53.160;17.920;2023-12-29T23:53:16;3.20;;;1.50;;
79365;SDS011;68833;53.160;17.920;2023-12-29T23:55:43;3.10;;;1.20;;
79365;SDS011;68833;53.160;17.920;2023-12-29T23:58:10;3.40;;;1.10;;
